createdAt,value
2022-12-24T00:00:15.765Z,5.72
2022-12-24T00:03:20.725Z,6.40
2022-12-24T00:06:25.404Z,5.68
2022-12-24T00:09:29.079Z,6.00
2022-12-24T00:12:32.595Z,5.57
2022-12-24T00:15:36.226Z,5.53
2022-12-24T00:18:45.874Z,6.85
2022-12-24T00:21:50.193Z,5.78
2022-12-24T00:24:53.583Z,6.45
2022-12-24T00:27:56.965Z,6.20
2022-12-24T00:31:00.413Z,6.45
2022-12-24T00:34:05.289Z,6.40
2022-12-24T00:37:10.079Z,7.03
2022-12-24T00:40:13.848Z,7.38
2022-12-24T00:43:17.501Z,6.93
2022-12-24T00:46:24.549Z,5.85
2022-12-24T00:49:29.457Z,6.15
2022-12-24T00:52:32.993Z,7.57
2022-12-24T00:55:36.408Z,6.72
2022-12-24T00:58:39.891Z,6.45
2022-12-24T01:01:43.704Z,6.63
2022-12-24T01:05:05.486Z,7.63
2022-12-24T01:08:08.830Z,7.72
2022-12-24T01:11:12.856Z,7.13
2022-12-24T01:14:16.265Z,6.50
2022-12-24T01:17:22.577Z,7.53
2022-12-24T01:20:31.518Z,6.65
2022-12-24T01:23:35.187Z,6.85
2022-12-24T01:26:38.673Z,6.78
2022-12-24T01:29:42.400Z,6.60
2022-12-24T01:32:45.857Z,6.55
2022-12-24T01:35:50.786Z,6.50
2022-12-24T01:38:54.279Z,6.47
2022-12-24T01:42:15.098Z,6.72
2022-12-24T01:45:42.315Z,5.72
2022-12-24T01:48:46.960Z,5.80
2022-12-24T01:51:54.192Z,5.20
2022-12-24T01:55:00.318Z,5.97
2022-12-24T01:58:04.605Z,5.18
2022-12-24T02:01:08.334Z,5.20
2022-12-24T02:04:15.465Z,5.15
2022-12-24T02:07:20.488Z,6.15
2022-12-24T02:10:24.181Z,5.82
2022-12-24T02:13:27.556Z,5.18
2022-12-24T02:16:40.273Z,4.72
2022-12-24T02:19:55.184Z,4.95
2022-12-24T02:23:08.956Z,4.90
2022-12-24T02:26:20.347Z,5.32
2022-12-24T02:29:36.709Z,4.90
2022-12-24T02:32:48.865Z,4.85
2022-12-24T02:35:54.329Z,5.30
2022-12-24T02:39:02.436Z,5.13
2022-12-24T02:42:07.726Z,4.82
2022-12-24T02:45:12.717Z,4.97
2022-12-24T02:48:18.715Z,4.57
2022-12-24T02:51:24.406Z,4.45
2022-12-24T02:54:27.849Z,4.05
2022-12-24T02:57:38.909Z,4.72
2022-12-24T03:00:49.636Z,4.20
2022-12-24T03:04:02.401Z,4.00
2022-12-24T03:07:08.271Z,3.63
2022-12-24T03:10:17.148Z,3.72
2022-12-24T03:13:21.336Z,4.10
2022-12-24T03:16:26.345Z,4.38
2022-12-24T03:19:32.124Z,4.20
2022-12-24T03:22:36.048Z,3.60
2022-12-24T03:25:41.925Z,4.15
2022-12-24T03:28:45.572Z,4.30
2022-12-24T03:31:50.144Z,3.80
2022-12-24T03:34:55.032Z,3.75
2022-12-24T03:37:58.466Z,3.65
2022-12-24T03:41:02.013Z,3.67
2022-12-24T03:44:05.756Z,4.45
2022-12-24T03:47:09.030Z,3.97
2022-12-24T03:50:14.495Z,3.83
2022-12-24T03:53:17.797Z,4.07
2022-12-24T03:56:21.608Z,3.92
2022-12-24T03:59:24.951Z,3.80
2022-12-24T04:02:28.609Z,4.07
2022-12-24T04:05:33.756Z,4.60
2022-12-24T04:08:37.591Z,3.58
2022-12-24T04:11:41.199Z,4.40
2022-12-24T04:14:44.638Z,3.55
2022-12-24T04:17:48.204Z,3.30
2022-12-24T04:20:52.930Z,4.22
2022-12-24T04:23:56.260Z,3.83
2022-12-24T04:26:59.582Z,3.58
2022-12-24T04:30:03.139Z,4.10
2022-12-24T04:33:07.564Z,4.03
2022-12-24T04:36:14.492Z,3.80
2022-12-24T04:39:17.806Z,3.90
2022-12-24T04:42:21.154Z,3.75
2022-12-24T04:45:24.585Z,3.45
2022-12-24T04:48:27.951Z,3.65
2022-12-24T04:51:32.685Z,3.65
2022-12-24T04:54:36.034Z,3.13
2022-12-24T04:57:39.426Z,3.75
2022-12-24T05:00:42.839Z,3.55
2022-12-24T05:03:46.231Z,3.17
2022-12-24T05:06:50.848Z,2.83
2022-12-24T05:09:54.128Z,3.50
2022-12-24T05:12:59.754Z,2.80
2022-12-24T05:16:03.172Z,3.30
2022-12-24T05:19:06.490Z,2.72
2022-12-24T05:22:28.744Z,3.15
2022-12-24T05:25:51.686Z,2.53
2022-12-24T05:28:55.995Z,2.50
2022-12-24T05:31:59.455Z,2.53
2022-12-24T05:35:03.036Z,2.30
2022-12-24T05:38:07.797Z,2.42
2022-12-24T05:41:11.536Z,2.75
2022-12-24T05:44:15.908Z,2.70
2022-12-24T05:47:19.181Z,2.67
2022-12-24T05:50:22.579Z,2.58
2022-12-24T05:53:42.347Z,2.22
2022-12-24T05:56:45.643Z,2.20
2022-12-24T05:59:49.463Z,2.00
2022-12-24T06:02:53.395Z,2.22
2022-12-24T06:06:00.302Z,2.70
2022-12-24T06:09:05.209Z,2.45
2022-12-24T06:12:08.592Z,1.83
2022-12-24T06:15:12.281Z,2.10
2022-12-24T06:18:15.684Z,2.20
2022-12-24T06:21:19.352Z,2.00
2022-12-24T06:24:24.140Z,1.90
2022-12-24T06:27:27.522Z,1.83
2022-12-24T06:30:31.033Z,1.65
2022-12-24T06:33:34.672Z,1.90
2022-12-24T06:36:37.956Z,2.10
2022-12-24T06:39:42.742Z,2.25
2022-12-24T06:42:46.069Z,2.10
2022-12-24T06:45:49.572Z,1.90
2022-12-24T06:48:54.876Z,1.80
2022-12-24T06:51:58.104Z,1.95
2022-12-24T06:55:02.844Z,1.55
2022-12-24T06:58:06.238Z,1.77
2022-12-24T07:01:10.916Z,1.48
2022-12-24T07:04:19.906Z,1.50
2022-12-24T07:07:23.853Z,1.52
2022-12-24T07:10:28.446Z,1.90
2022-12-24T07:13:33.033Z,1.75
2022-12-24T07:16:36.521Z,2.13
2022-12-24T07:19:40.013Z,2.40
2022-12-24T07:22:43.771Z,1.95
2022-12-24T07:25:48.461Z,2.30
2022-12-24T07:28:51.833Z,2.40
2022-12-24T07:31:55.333Z,2.95
2022-12-24T07:34:58.839Z,2.88
2022-12-24T07:38:03.116Z,2.17
2022-12-24T07:41:07.891Z,2.45
2022-12-24T07:44:13.767Z,2.80
2022-12-24T07:47:17.156Z,2.60
2022-12-24T07:50:21.020Z,2.63
2022-12-24T07:53:24.520Z,3.47
2022-12-24T07:56:29.411Z,2.80
2022-12-24T07:59:32.791Z,3.88
2022-12-24T08:02:37.255Z,8.75
2022-12-24T08:05:40.731Z,6.93
2022-12-24T08:08:44.226Z,5.30
2022-12-24T08:11:52.395Z,4.82
2022-12-24T08:14:56.451Z,3.58
2022-12-24T08:18:00.375Z,3.97
2022-12-24T08:21:03.929Z,4.25
2022-12-24T08:24:07.585Z,4.18
2022-12-24T08:27:12.379Z,4.55
2022-12-24T08:30:20.799Z,5.07
2022-12-24T08:33:24.745Z,4.55
2022-12-24T08:36:28.318Z,5.50
2022-12-24T08:39:31.845Z,4.28
2022-12-24T08:42:36.643Z,4.05
2022-12-24T08:45:41.277Z,3.45
2022-12-24T08:48:44.855Z,3.53
2022-12-24T08:51:48.997Z,3.25
2022-12-24T08:54:52.566Z,3.10
2022-12-24T08:57:57.475Z,3.35
2022-12-24T09:01:01.354Z,3.58
2022-12-24T09:04:05.013Z,3.17
2022-12-24T09:07:08.535Z,3.63
2022-12-24T09:10:12.458Z,4.22
2022-12-24T09:13:17.122Z,4.53
2022-12-24T09:16:20.519Z,4.90
2022-12-24T09:19:24.160Z,3.13
2022-12-24T09:22:27.858Z,3.90
2022-12-24T09:25:31.243Z,3.92
2022-12-24T09:28:36.198Z,3.97
2022-12-24T09:31:39.573Z,4.20
2022-12-24T09:34:43.016Z,3.60
2022-12-24T09:37:46.600Z,3.47
2022-12-24T09:40:51.087Z,3.55
2022-12-24T09:43:58.879Z,4.25
2022-12-24T09:47:09.980Z,3.67
2022-12-24T09:50:23.731Z,3.60
2022-12-24T09:53:29.781Z,4.10
2022-12-24T09:56:35.242Z,4.07
2022-12-24T09:59:43.263Z,4.18
2022-12-24T10:02:47.088Z,4.50
2022-12-24T10:05:57.059Z,4.07
2022-12-24T10:09:04.705Z,4.65
2022-12-24T10:12:11.295Z,4.22
2022-12-24T10:15:21.593Z,4.32
2022-12-24T10:18:29.417Z,5.03
2022-12-24T10:21:39.177Z,4.90
2022-12-24T10:24:50.764Z,4.88
2022-12-24T10:27:56.604Z,4.18
2022-12-24T10:31:03.168Z,4.07
2022-12-24T10:34:08.507Z,3.92
2022-12-24T10:37:16.741Z,5.32
2022-12-24T10:40:25.717Z,4.88
2022-12-24T10:43:31.826Z,3.95
2022-12-24T10:46:42.928Z,4.35
2022-12-24T10:49:49.119Z,4.50
2022-12-24T10:52:55.474Z,4.10
2022-12-24T10:56:06.359Z,3.83
2022-12-24T10:59:24.377Z,3.95
2022-12-24T11:02:30.781Z,4.10
2022-12-24T11:05:35.166Z,3.72
2022-12-24T11:08:39.560Z,4.05
2022-12-24T11:11:43.009Z,4.22
2022-12-24T11:14:46.646Z,4.75
2022-12-24T11:17:56.114Z,4.13
2022-12-24T11:21:01.016Z,3.92
2022-12-24T11:24:07.231Z,3.88
2022-12-24T11:27:34.895Z,3.75
2022-12-24T11:30:38.556Z,3.55
2022-12-24T11:33:49.324Z,3.95
2022-12-24T11:36:53.180Z,3.60
2022-12-24T11:40:05.118Z,3.33
2022-12-24T11:43:17.591Z,3.92
2022-12-24T11:46:22.439Z,3.67
2022-12-24T11:49:28.689Z,3.70
2022-12-24T11:52:33.060Z,4.30
2022-12-24T11:55:41.794Z,3.00
2022-12-24T11:58:48.586Z,3.42
2022-12-24T12:01:58.461Z,3.05
2022-12-24T12:05:06.276Z,3.28
2022-12-24T12:08:12.600Z,4.00
2022-12-24T12:11:18.732Z,3.80
2022-12-24T12:14:24.516Z,4.55
2022-12-24T12:17:30.187Z,3.92
2022-12-24T12:20:39.273Z,3.67
2022-12-24T12:23:46.203Z,4.57
2022-12-24T12:26:50.965Z,4.70
2022-12-24T12:29:57.650Z,4.22
2022-12-24T12:33:07.052Z,3.78
2022-12-24T12:36:13.862Z,4.03
2022-12-24T12:39:17.762Z,4.55
2022-12-24T12:42:25.347Z,4.05
2022-12-24T12:45:39.687Z,4.57
2022-12-24T12:48:56.911Z,4.95
2022-12-24T12:52:07.897Z,5.07
2022-12-24T12:55:24.731Z,5.05
2022-12-24T12:58:31.229Z,4.57
2022-12-24T13:01:46.217Z,4.53
2022-12-24T13:05:08.452Z,5.30
2022-12-24T13:08:23.913Z,5.28
2022-12-24T13:11:37.379Z,5.68
2022-12-24T13:15:06.772Z,5.03
2022-12-24T13:18:22.129Z,5.15
2022-12-24T13:21:26.992Z,4.97
2022-12-24T13:24:33.147Z,5.03
2022-12-24T13:27:36.967Z,5.15
2022-12-24T13:30:42.737Z,5.03
2022-12-24T13:33:50.205Z,7.20
2022-12-24T13:37:06.944Z,6.05
2022-12-24T13:40:23.803Z,5.28
2022-12-24T13:43:27.759Z,5.85
2022-12-24T13:46:46.175Z,5.20
2022-12-24T13:49:51.863Z,5.53
2022-12-24T13:52:55.691Z,5.20
2022-12-24T13:56:07.345Z,4.72
2022-12-24T13:59:15.822Z,5.13
2022-12-24T14:02:24.572Z,5.07
2022-12-24T14:05:33.555Z,4.50
2022-12-24T14:08:39.241Z,4.53
2022-12-24T14:11:57.952Z,4.55
2022-12-24T14:15:27.259Z,3.75
2022-12-24T14:18:31.294Z,4.20
2022-12-24T14:21:36.507Z,4.63
2022-12-24T14:24:43.721Z,3.80
2022-12-24T14:27:49.097Z,5.20
2022-12-24T14:31:02.871Z,4.40
2022-12-24T14:34:09.805Z,4.50
2022-12-24T14:37:15.331Z,5.18
2022-12-24T14:40:20.485Z,4.63
2022-12-24T14:43:33.346Z,4.32
2022-12-24T14:46:45.764Z,4.55
2022-12-24T14:49:56.714Z,3.70
2022-12-24T14:53:08.301Z,4.25
2022-12-24T14:56:18.343Z,3.85
2022-12-24T14:59:22.026Z,3.85
2022-12-24T15:02:39.388Z,4.18
2022-12-24T15:05:46.303Z,3.72
2022-12-24T15:08:51.102Z,3.60
2022-12-24T15:11:58.818Z,3.92
2022-12-24T15:15:02.539Z,4.95
2022-12-24T15:18:07.530Z,4.90
2022-12-24T15:21:17.119Z,6.60
2022-12-24T15:24:28.231Z,5.18
2022-12-24T15:27:34.283Z,5.05
2022-12-24T15:30:37.798Z,4.13
2022-12-24T15:33:42.730Z,4.78
2022-12-24T15:36:46.238Z,4.57
2022-12-24T15:39:55.391Z,4.45
2022-12-24T15:42:58.877Z,6.82
2022-12-24T15:46:02.552Z,5.60
2022-12-24T15:49:18.073Z,5.88
2022-12-24T15:52:25.741Z,5.88
2022-12-24T15:55:30.520Z,5.93
2022-12-24T15:58:34.980Z,4.70
2022-12-24T16:01:38.786Z,5.80
2022-12-24T16:04:48.941Z,5.57
2022-12-24T16:08:10.378Z,4.47
2022-12-24T16:11:17.354Z,4.63
2022-12-24T16:14:20.915Z,4.75
2022-12-24T16:17:25.297Z,6.43
2022-12-24T16:20:33.360Z,9.48
2022-12-24T16:23:41.713Z,13.65
2022-12-24T16:26:45.668Z,7.57
2022-12-24T16:29:49.499Z,6.20
2022-12-24T16:32:53.186Z,6.72
2022-12-24T16:36:01.669Z,4.40
2022-12-24T16:39:24.670Z,3.60
2022-12-24T16:42:45.333Z,3.85
2022-12-24T16:45:49.064Z,4.22
2022-12-24T16:48:53.661Z,4.50
2022-12-24T16:51:58.704Z,4.20
2022-12-24T16:55:04.709Z,4.75
2022-12-24T16:58:08.118Z,3.30
2022-12-24T17:01:14.128Z,4.38
2022-12-24T17:04:18.381Z,3.65
2022-12-24T17:07:23.417Z,3.90
2022-12-24T17:10:26.924Z,4.43
2022-12-24T17:13:30.469Z,3.10
2022-12-24T17:16:34.286Z,3.58
2022-12-24T17:19:38.219Z,3.35
2022-12-24T17:22:43.403Z,2.45
2022-12-24T17:25:48.391Z,2.47
2022-12-24T17:28:55.111Z,2.00
2022-12-24T17:31:58.638Z,2.72
2022-12-24T17:35:02.981Z,2.50
2022-12-24T17:38:07.767Z,2.03
2022-12-24T17:41:12.777Z,2.42
2022-12-24T17:44:16.457Z,2.60
2022-12-24T17:47:20.066Z,3.42
2022-12-24T17:50:23.537Z,2.42
2022-12-24T17:53:28.307Z,2.65
2022-12-24T17:56:31.862Z,2.47
2022-12-24T17:59:35.220Z,2.95
2022-12-24T18:02:39.825Z,2.95
2022-12-24T18:05:43.426Z,2.95
2022-12-24T18:08:48.744Z,2.70
2022-12-24T18:11:53.111Z,4.88
2022-12-24T18:14:56.696Z,2.70
2022-12-24T18:18:00.120Z,2.60
2022-12-24T18:21:06.566Z,2.97
2022-12-24T18:24:12.524Z,2.38
2022-12-24T18:27:16.091Z,2.60
2022-12-24T18:30:25.824Z,4.00
2022-12-24T18:33:31.242Z,3.08
2022-12-24T18:36:34.924Z,2.95
2022-12-24T18:39:40.456Z,3.15
2022-12-24T18:42:44.652Z,4.18
2022-12-24T18:45:48.857Z,4.15
2022-12-24T18:48:52.440Z,3.65
2022-12-24T18:51:55.935Z,2.90
2022-12-24T18:55:00.949Z,3.63
2022-12-24T18:58:04.305Z,2.65
2022-12-24T19:01:11.526Z,3.30
2022-12-24T19:04:15.709Z,3.20
2022-12-24T19:07:19.150Z,2.53
2022-12-24T19:10:24.023Z,2.92
2022-12-24T19:13:27.327Z,2.35
2022-12-24T19:16:31.666Z,3.17
2022-12-24T19:19:35.027Z,3.08
2022-12-24T19:22:38.604Z,3.10
2022-12-24T19:25:43.439Z,2.35
2022-12-24T19:28:47.278Z,2.75
2022-12-24T19:31:50.675Z,2.20
2022-12-24T19:34:54.141Z,2.45
2022-12-24T19:37:57.555Z,2.13
2022-12-24T19:41:08.205Z,2.08
2022-12-24T19:44:12.324Z,2.20
2022-12-24T19:47:15.809Z,2.85
2022-12-24T19:50:19.947Z,2.25
2022-12-24T19:53:23.351Z,2.35
2022-12-24T19:56:29.701Z,2.47
2022-12-24T19:59:33.443Z,2.42
2022-12-24T20:02:37.862Z,3.00
2022-12-24T20:05:41.790Z,2.70
2022-12-24T20:08:45.575Z,2.53
2022-12-24T20:11:52.751Z,2.22
2022-12-24T20:14:57.396Z,2.30
2022-12-24T20:18:01.178Z,1.85
2022-12-24T20:21:05.620Z,2.00
2022-12-24T20:24:09.513Z,2.80
2022-12-24T20:27:14.561Z,2.35
2022-12-24T20:30:18.119Z,2.47
2022-12-24T20:33:21.641Z,2.92
2022-12-24T20:36:26.739Z,3.22
2022-12-24T20:39:30.277Z,2.95
2022-12-24T20:42:35.336Z,2.60
2022-12-24T20:45:39.332Z,2.88
2022-12-24T20:48:42.883Z,2.90
2022-12-24T20:51:46.278Z,3.22
2022-12-24T20:54:49.649Z,3.08
2022-12-24T20:57:55.268Z,2.88
2022-12-24T21:00:58.783Z,2.58
2022-12-24T21:04:04.843Z,3.40
2022-12-24T21:07:08.488Z,3.40
2022-12-24T21:10:12.482Z,2.50
2022-12-24T21:13:16.217Z,2.63
2022-12-24T21:16:19.626Z,3.03
2022-12-24T21:19:24.448Z,2.72
2022-12-24T21:22:27.818Z,2.20
2022-12-24T21:25:31.331Z,2.20
2022-12-24T21:28:36.116Z,2.33
2022-12-24T21:31:39.591Z,1.90
2022-12-24T21:34:43.134Z,2.15
2022-12-24T21:37:46.999Z,2.50
2022-12-24T21:40:58.641Z,2.03
2022-12-24T21:44:03.790Z,2.00
2022-12-24T21:47:07.802Z,2.10
2022-12-24T21:50:32.031Z,2.78
2022-12-24T21:53:53.398Z,2.55
2022-12-24T21:57:14.293Z,3.47
2022-12-24T22:00:23.015Z,2.85
2022-12-24T22:03:26.526Z,1.92
2022-12-24T22:06:48.575Z,2.22
2022-12-24T22:10:09.838Z,2.33
2022-12-24T22:13:13.243Z,2.95
2022-12-24T22:16:18.064Z,2.65
2022-12-24T22:19:21.509Z,1.85
2022-12-24T22:22:25.235Z,2.05
2022-12-24T22:25:30.308Z,2.00
2022-12-24T22:28:34.957Z,2.38
2022-12-24T22:31:40.277Z,1.92
2022-12-24T22:34:44.775Z,1.80
2022-12-24T22:37:48.292Z,2.90
2022-12-24T22:40:51.963Z,2.40
2022-12-24T22:43:55.468Z,1.70
2022-12-24T22:47:00.176Z,1.63
2022-12-24T22:50:03.491Z,2.60
2022-12-24T22:53:06.927Z,2.63
2022-12-24T22:56:11.449Z,1.83
2022-12-24T22:59:15.356Z,1.73
2022-12-24T23:02:27.545Z,1.83
2022-12-24T23:05:31.908Z,1.85
2022-12-24T23:08:36.831Z,2.08
2022-12-24T23:11:40.635Z,2.58
2022-12-24T23:14:58.324Z,2.13
2022-12-24T23:18:03.497Z,2.10
2022-12-24T23:21:07.796Z,1.88
2022-12-24T23:24:12.287Z,2.42
2022-12-24T23:27:15.834Z,1.80
2022-12-24T23:30:19.656Z,2.72
2022-12-24T23:33:24.460Z,1.92
2022-12-24T23:36:27.894Z,2.38
2022-12-24T23:39:31.468Z,1.80
2022-12-24T23:42:35.241Z,1.80
2022-12-24T23:45:38.651Z,1.85
2022-12-24T23:48:45.709Z,2.05
2022-12-24T23:51:49.098Z,2.40
2022-12-24T23:54:52.446Z,2.63
2022-12-24T23:57:55.962Z,2.50
